createdAt,value
2018-07-25T00:01:56.947Z,12.80
2018-07-25T00:04:27.565Z,13.40
2018-07-25T00:06:56.176Z,14.20
2018-07-25T00:09:24.823Z,14.23
2018-07-25T00:11:53.355Z,12.43
2018-07-25T00:14:22.590Z,12.60
2018-07-25T00:16:51.127Z,14.13
2018-07-25T00:19:19.739Z,14.10
2018-07-25T00:21:48.201Z,13.97
2018-07-25T00:24:16.749Z,13.60
2018-07-25T00:26:45.305Z,13.77
2018-07-25T00:29:13.892Z,12.90
2018-07-25T00:31:42.376Z,14.03
2018-07-25T00:34:11.015Z,14.07
2018-07-25T00:36:39.563Z,15.00
2018-07-25T00:39:08.772Z,14.70
2018-07-25T00:41:37.297Z,16.57
2018-07-25T00:44:05.864Z,15.17
2018-07-25T00:46:34.441Z,14.30
2018-07-25T00:49:03.024Z,14.00
2018-07-25T00:51:31.673Z,15.40
2018-07-25T00:54:00.195Z,15.80
2018-07-25T00:56:28.712Z,16.87
2018-07-25T00:58:57.264Z,17.23
2018-07-25T01:01:25.869Z,16.67
2018-07-25T01:03:54.622Z,15.87
2018-07-25T01:06:23.165Z,16.10
2018-07-25T01:08:51.869Z,15.00
2018-07-25T01:11:20.476Z,16.50
2018-07-25T01:13:49.012Z,15.43
2018-07-25T01:16:17.620Z,15.90
2018-07-25T01:18:46.125Z,14.80
2018-07-25T01:21:14.740Z,15.17
2018-07-25T01:23:43.233Z,15.87
2018-07-25T01:26:11.748Z,15.20
2018-07-25T01:28:40.302Z,15.57
2018-07-25T01:31:08.848Z,15.30
2018-07-25T01:33:37.419Z,16.20
2018-07-25T01:36:05.982Z,15.77
2018-07-25T01:38:34.525Z,15.80
2018-07-25T01:41:03.113Z,16.80
2018-07-25T01:43:31.680Z,15.60
2018-07-25T01:46:00.250Z,16.47
2018-07-25T01:48:28.803Z,16.10
2018-07-25T01:50:57.295Z,14.97
2018-07-25T01:53:25.730Z,15.83
2018-07-25T01:55:54.278Z,15.20
2018-07-25T01:58:22.750Z,15.63
2018-07-25T02:00:51.344Z,15.10
2018-07-25T02:03:19.973Z,18.40
2018-07-25T02:05:48.490Z,15.90
2018-07-25T02:08:17.085Z,15.80
2018-07-25T02:10:46.433Z,16.53
2018-07-25T02:13:16.865Z,16.53
2018-07-25T02:15:45.948Z,16.47
2018-07-25T02:18:14.477Z,15.30
2018-07-25T02:20:43.021Z,15.47
2018-07-25T02:23:11.561Z,14.50
2018-07-25T02:25:40.125Z,16.40
2018-07-25T02:28:08.678Z,15.47
2018-07-25T02:30:37.273Z,16.07
2018-07-25T02:33:05.946Z,15.27
2018-07-25T02:35:34.501Z,16.27
2018-07-25T02:38:02.976Z,16.10
2018-07-25T02:40:31.499Z,18.40
2018-07-25T02:43:00.126Z,16.33
2018-07-25T02:45:32.849Z,16.43
2018-07-25T02:48:01.368Z,16.93
2018-07-25T02:50:29.947Z,16.33
2018-07-25T02:52:58.448Z,16.07
2018-07-25T02:55:26.928Z,16.17
2018-07-25T02:57:55.522Z,17.53
2018-07-25T03:00:24.077Z,16.40
2018-07-25T03:02:52.599Z,18.17
2018-07-25T03:05:21.083Z,17.97
2018-07-25T03:07:49.650Z,17.67
2018-07-25T03:10:18.249Z,18.87
2018-07-25T03:12:46.483Z,18.43
2018-07-25T03:15:15.091Z,17.73
2018-07-25T03:17:43.615Z,17.67
2018-07-25T03:20:12.148Z,16.90
2018-07-25T03:22:40.747Z,16.70
2018-07-25T03:25:09.303Z,17.93
2018-07-25T03:27:37.841Z,17.30
2018-07-25T03:30:06.733Z,16.50
2018-07-25T03:32:35.325Z,17.47
2018-07-25T03:35:03.927Z,18.20
2018-07-25T03:37:32.522Z,17.97
2018-07-25T03:40:01.077Z,18.67
2018-07-25T03:42:29.575Z,18.47
2018-07-25T03:44:58.199Z,18.27
2018-07-25T03:47:26.758Z,17.23
2018-07-25T03:49:55.327Z,18.37
2018-07-25T03:52:23.784Z,18.00
2018-07-25T03:54:52.303Z,16.80
2018-07-25T03:57:20.809Z,16.87
2018-07-25T03:59:49.308Z,18.20
2018-07-25T04:02:17.919Z,17.23
2018-07-25T04:04:46.473Z,17.80
2018-07-25T04:07:14.995Z,17.40
2018-07-25T04:09:43.523Z,18.00
2018-07-25T04:12:12.075Z,16.63
2018-07-25T04:14:40.614Z,18.47
2018-07-25T04:17:09.095Z,17.73
2018-07-25T04:19:37.669Z,17.63
2018-07-25T04:22:06.287Z,18.50
2018-07-25T04:24:34.766Z,16.80
2018-07-25T04:27:03.427Z,17.10
2018-07-25T04:29:31.973Z,18.03
2018-07-25T04:32:00.532Z,16.67
2018-07-25T04:34:28.984Z,17.73
2018-07-25T04:36:57.543Z,17.70
2018-07-25T04:39:26.181Z,17.90
2018-07-25T04:41:54.736Z,17.33
2018-07-25T04:44:23.274Z,17.90
2018-07-25T04:46:51.821Z,16.80
2018-07-25T04:49:20.387Z,17.13
2018-07-25T04:51:48.971Z,16.90
2018-07-25T04:54:17.535Z,17.07
2018-07-25T04:56:46.111Z,18.33
2018-07-25T04:59:14.288Z,17.80
2018-07-25T05:01:42.873Z,17.97
2018-07-25T05:04:11.428Z,16.40
2018-07-25T05:06:39.962Z,17.87
2018-07-25T05:09:09.453Z,17.00
2018-07-25T05:11:38.018Z,16.80
2018-07-25T05:14:06.800Z,15.87
2018-07-25T05:16:35.538Z,17.60
2018-07-25T05:19:04.189Z,18.77
2018-07-25T05:21:32.773Z,17.40
2018-07-25T05:24:01.395Z,17.93
2018-07-25T05:26:29.880Z,18.03
2018-07-25T05:28:58.495Z,17.20
2018-07-25T05:31:27.076Z,16.83
2018-07-25T05:33:55.593Z,17.07
2018-07-25T05:36:24.060Z,17.43
2018-07-25T05:38:52.679Z,16.60
2018-07-25T05:41:21.285Z,16.80
2018-07-25T05:43:49.856Z,15.77
2018-07-25T05:46:18.961Z,17.43
2018-07-25T05:48:47.556Z,18.53
2018-07-25T05:51:16.052Z,17.20
2018-07-25T05:53:44.599Z,16.37
2018-07-25T05:56:13.098Z,17.50
2018-07-25T05:58:41.652Z,16.70
2018-07-25T06:01:10.172Z,17.00
2018-07-25T06:03:38.608Z,17.30
2018-07-25T06:06:07.269Z,19.70
2018-07-25T06:08:35.780Z,18.83
2018-07-25T06:11:04.846Z,19.40
2018-07-25T06:13:33.381Z,19.37
2018-07-25T06:16:01.916Z,18.73
2018-07-25T06:18:30.522Z,19.87
2018-07-25T06:20:59.051Z,20.30
2018-07-25T06:23:27.588Z,19.10
2018-07-25T06:25:56.248Z,18.87
2018-07-25T06:28:24.766Z,20.00
2018-07-25T06:30:54.323Z,19.03
2018-07-25T06:33:22.905Z,19.10
2018-07-25T06:35:51.438Z,20.50
2018-07-25T06:38:19.916Z,18.70
2018-07-25T06:40:48.404Z,18.60
2018-07-25T06:43:17.026Z,20.03
2018-07-25T06:45:45.458Z,21.13
2018-07-25T06:48:14.032Z,20.30
2018-07-25T06:50:42.556Z,19.80
2018-07-25T06:53:11.155Z,19.57
2018-07-25T06:55:39.699Z,19.30
2018-07-25T06:58:08.278Z,19.83
2018-07-25T07:00:36.748Z,20.07
2018-07-25T07:03:05.273Z,18.53
2018-07-25T07:05:33.711Z,19.73
2018-07-25T07:08:02.284Z,18.40
2018-07-25T07:10:30.751Z,19.37
2018-07-25T07:12:59.349Z,19.80
2018-07-25T07:15:27.866Z,18.90
2018-07-25T07:17:56.397Z,17.90
2018-07-25T07:20:25.015Z,21.30
2018-07-25T07:22:53.620Z,20.20
2018-07-25T07:25:22.192Z,18.00
2018-07-25T07:27:50.700Z,19.30
2018-07-25T07:30:19.190Z,18.03
2018-07-25T07:32:47.751Z,20.00
2018-07-25T07:35:16.335Z,18.00
2018-07-25T07:37:44.901Z,17.77
2018-07-25T07:40:13.395Z,17.67
2018-07-25T07:42:41.929Z,17.90
2018-07-25T07:45:10.534Z,18.43
2018-07-25T07:47:39.152Z,17.90
2018-07-25T07:50:07.721Z,18.03
2018-07-25T07:52:36.226Z,18.57
2018-07-25T07:55:05.249Z,17.80
2018-07-25T07:57:33.796Z,19.03
2018-07-25T08:00:02.260Z,18.17
2018-07-25T08:02:30.775Z,18.10
2018-07-25T08:04:59.369Z,17.60
2018-07-25T08:07:27.914Z,17.37
2018-07-25T08:09:56.465Z,17.27
2018-07-25T08:12:25.011Z,17.80
2018-07-25T08:14:53.553Z,15.80
2018-07-25T08:17:22.073Z,17.00
2018-07-25T08:19:50.678Z,16.20
2018-07-25T08:22:19.246Z,17.13
2018-07-25T08:24:47.718Z,17.90
2018-07-25T08:27:16.307Z,17.00
2018-07-25T08:29:44.898Z,15.90
2018-07-25T08:32:15.881Z,16.80
2018-07-25T08:34:44.504Z,17.30
2018-07-25T08:37:13.041Z,15.20
2018-07-25T08:39:41.591Z,16.27
2018-07-25T08:42:10.175Z,17.23
2018-07-25T08:44:38.765Z,15.13
2018-07-25T08:47:07.248Z,16.17
2018-07-25T08:49:35.855Z,15.70
2018-07-25T08:52:04.407Z,14.90
2018-07-25T08:54:32.969Z,15.27
2018-07-25T08:57:01.473Z,14.30
2018-07-25T08:59:30.028Z,13.93
2018-07-25T09:01:58.578Z,13.20
2018-07-25T09:04:27.090Z,13.23
2018-07-25T09:06:55.677Z,13.83
2018-07-25T09:09:24.221Z,13.80
2018-07-25T09:11:52.758Z,13.47
2018-07-25T09:14:21.341Z,13.10
2018-07-25T09:16:49.951Z,12.60
2018-07-25T09:19:18.436Z,13.07
2018-07-25T09:21:46.890Z,13.27
2018-07-25T09:24:15.401Z,12.10
2018-07-25T09:26:43.985Z,11.63
2018-07-25T09:29:12.685Z,10.90
2018-07-25T09:31:41.269Z,12.07
2018-07-25T09:34:09.911Z,12.70
2018-07-25T09:36:38.471Z,12.60
2018-07-25T09:39:09.195Z,12.77
2018-07-25T09:41:37.860Z,11.80
2018-07-25T09:44:06.447Z,11.63
2018-07-25T09:46:35.424Z,11.50
2018-07-25T09:49:03.944Z,11.20
2018-07-25T09:51:32.501Z,11.60
2018-07-25T09:54:01.139Z,12.70
2018-07-25T09:56:29.728Z,12.87
2018-07-25T09:58:58.297Z,11.57
2018-07-25T10:01:26.717Z,11.40
2018-07-25T10:03:55.247Z,11.57
2018-07-25T10:06:23.796Z,11.27
2018-07-25T10:08:52.388Z,11.87
2018-07-25T10:11:22.835Z,14.83
2018-07-25T10:13:52.294Z,12.27
2018-07-25T10:16:20.938Z,11.27
2018-07-25T10:18:49.534Z,12.03
2018-07-25T10:21:18.050Z,11.83
2018-07-25T10:23:46.656Z,11.23
2018-07-25T10:26:15.184Z,11.33
2018-07-25T10:28:43.737Z,12.40
2018-07-25T10:31:12.234Z,11.23
2018-07-25T10:33:40.765Z,9.37
2018-07-25T10:36:09.318Z,8.80
2018-07-25T10:38:37.875Z,8.70
2018-07-25T10:41:06.367Z,8.97
2018-07-25T10:43:34.925Z,9.33
2018-07-25T10:46:03.479Z,9.30
2018-07-25T10:48:32.045Z,8.93
2018-07-25T10:51:00.633Z,8.87
2018-07-25T10:53:29.149Z,9.63
2018-07-25T10:55:57.762Z,8.47
2018-07-25T10:58:26.232Z,8.70
2018-07-25T11:00:54.738Z,8.53
2018-07-25T11:03:23.275Z,8.70
2018-07-25T11:05:51.892Z,8.20
2018-07-25T11:08:20.483Z,8.63
2018-07-25T11:10:49.051Z,8.97
2018-07-25T11:13:17.553Z,8.80
2018-07-25T11:15:46.161Z,7.80
2018-07-25T11:18:14.785Z,7.97
2018-07-25T11:20:43.303Z,8.40
2018-07-25T11:23:12.046Z,7.63
2018-07-25T11:25:40.555Z,7.90
2018-07-25T11:28:09.124Z,7.60
2018-07-25T11:30:37.698Z,7.50
2018-07-25T11:33:06.177Z,7.50
2018-07-25T11:35:35.022Z,7.50
2018-07-25T11:38:03.532Z,7.30
2018-07-25T11:40:32.039Z,6.63
2018-07-25T11:43:00.653Z,7.27
2018-07-25T11:45:29.249Z,7.20
2018-07-25T11:47:57.806Z,7.80
2018-07-25T11:50:26.416Z,7.80
2018-07-25T11:52:55.156Z,7.60
2018-07-25T11:55:23.719Z,7.43
2018-07-25T11:57:52.293Z,7.73
2018-07-25T12:00:20.841Z,7.93
2018-07-25T12:02:52.357Z,8.03
2018-07-25T12:05:20.812Z,8.50
2018-07-25T12:07:49.409Z,7.50
2018-07-25T12:10:17.963Z,7.60
2018-07-25T12:12:46.404Z,8.20
2018-07-25T12:15:14.924Z,7.57
2018-07-25T12:17:43.516Z,7.53
2018-07-25T12:20:12.040Z,7.53
2018-07-25T12:22:40.673Z,7.73
2018-07-25T12:25:09.168Z,7.70
2018-07-25T12:27:37.716Z,8.27
2018-07-25T12:30:07.003Z,7.90
2018-07-25T12:32:35.600Z,7.23
2018-07-25T12:35:04.274Z,6.60
2018-07-25T12:37:32.795Z,7.33
2018-07-25T12:40:01.332Z,7.07
2018-07-25T12:42:29.952Z,9.40
2018-07-25T12:44:58.470Z,8.40
2018-07-25T12:47:26.988Z,7.97
2018-07-25T12:49:56.577Z,7.10
2018-07-25T12:52:25.166Z,8.27
2018-07-25T12:54:53.708Z,7.90
2018-07-25T12:57:22.316Z,7.60
2018-07-25T12:59:50.889Z,8.10
2018-07-25T13:02:19.472Z,8.13
2018-07-25T13:04:48.009Z,7.37
2018-07-25T13:07:16.626Z,7.60
2018-07-25T13:09:45.725Z,7.30
2018-07-25T13:12:14.260Z,7.87
2018-07-25T13:14:42.800Z,7.10
2018-07-25T13:17:11.447Z,7.50
2018-07-25T13:19:39.992Z,6.60
2018-07-25T13:22:08.717Z,6.80
2018-07-25T13:24:37.382Z,7.23
2018-07-25T13:27:06.003Z,7.07
2018-07-25T13:29:34.627Z,7.30
2018-07-25T13:32:03.329Z,6.63
2018-07-25T13:34:31.900Z,6.70
2018-07-25T13:37:00.683Z,7.00
2018-07-25T13:39:29.212Z,7.40
2018-07-25T13:41:57.475Z,7.03
2018-07-25T13:44:26.069Z,6.87
2018-07-25T13:46:54.602Z,7.53
2018-07-25T13:49:23.237Z,6.90
2018-07-25T13:51:51.836Z,6.97
2018-07-25T13:54:20.390Z,7.17
2018-07-25T13:56:48.865Z,6.10
2018-07-25T13:59:17.457Z,7.80
2018-07-25T14:01:46.069Z,6.70
2018-07-25T14:04:14.598Z,6.73
2018-07-25T14:06:43.264Z,6.93
2018-07-25T14:09:12.657Z,6.97
2018-07-25T14:11:41.524Z,6.87
2018-07-25T14:14:11.348Z,7.50
2018-07-25T14:16:40.617Z,6.70
2018-07-25T14:19:10.224Z,7.87
2018-07-25T14:21:39.307Z,8.47
2018-07-25T14:24:07.890Z,8.07
2018-07-25T14:26:36.236Z,6.73
2018-07-25T14:29:04.879Z,7.10
2018-07-25T14:31:33.356Z,7.03
2018-07-25T14:34:01.937Z,7.10
2018-07-25T14:36:30.516Z,5.33
2018-07-25T14:38:59.141Z,6.20
2018-07-25T14:41:27.796Z,5.30
2018-07-25T14:43:56.385Z,5.93
2018-07-25T14:46:24.957Z,6.30
2018-07-25T14:48:53.539Z,5.63
2018-07-25T14:51:22.051Z,6.07
2018-07-25T14:53:51.684Z,5.40
2018-07-25T14:56:20.244Z,6.70
2018-07-25T14:58:48.776Z,6.73
2018-07-25T15:01:17.361Z,5.30
2018-07-25T15:03:45.929Z,5.47
2018-07-25T15:06:14.525Z,5.70
2018-07-25T15:08:43.105Z,5.80
2018-07-25T15:11:11.744Z,5.73
2018-07-25T15:13:40.477Z,5.90
2018-07-25T15:16:09.112Z,5.53
2018-07-25T15:18:37.749Z,5.80
2018-07-25T15:21:06.606Z,5.83
2018-07-25T15:23:46.294Z,6.20
2018-07-25T15:26:14.798Z,6.00
2018-07-25T15:28:43.386Z,6.00
2018-07-25T15:31:11.637Z,5.87
2018-07-25T15:33:40.219Z,6.13
2018-07-25T15:36:08.816Z,5.47
2018-07-25T15:38:37.353Z,5.20
2018-07-25T15:41:05.889Z,5.80
2018-07-25T15:43:34.551Z,6.40
2018-07-25T15:46:03.097Z,7.20
2018-07-25T15:48:31.808Z,6.70
2018-07-25T15:51:00.421Z,6.23
2018-07-25T15:53:28.694Z,6.17
2018-07-25T15:55:57.314Z,7.27
2018-07-25T15:58:26.771Z,6.97
2018-07-25T16:00:55.376Z,6.67
2018-07-25T16:03:24.229Z,6.83
2018-07-25T16:05:52.793Z,7.50
2018-07-25T16:08:21.378Z,6.73
2018-07-25T16:10:49.968Z,7.20
2018-07-25T16:13:18.524Z,6.43
2018-07-25T16:15:47.058Z,6.53
2018-07-25T16:18:15.610Z,6.63
2018-07-25T16:20:44.241Z,7.27
2018-07-25T16:23:12.822Z,7.17
2018-07-25T16:25:41.384Z,7.30
2018-07-25T16:28:09.937Z,6.87
2018-07-25T16:30:38.509Z,6.60
2018-07-25T16:33:07.271Z,3.17
2018-07-25T16:35:35.754Z,2.67
2018-07-25T16:38:04.277Z,2.23
2018-07-25T16:40:32.925Z,2.13
2018-07-25T16:43:01.495Z,3.73
2018-07-25T16:45:30.309Z,6.50
2018-07-25T16:47:58.901Z,5.90
2018-07-25T16:50:28.024Z,5.87
2018-07-25T16:52:56.876Z,6.40
2018-07-25T16:55:25.621Z,6.37
2018-07-25T16:57:54.378Z,6.10
2018-07-25T17:00:22.950Z,6.70
2018-07-25T17:02:51.500Z,6.17
2018-07-25T17:05:21.288Z,6.03
2018-07-25T17:07:49.854Z,5.70
2018-07-25T17:10:18.392Z,5.70
2018-07-25T17:12:47.126Z,6.17
2018-07-25T17:15:15.740Z,6.23
2018-07-25T17:17:44.397Z,5.77
2018-07-25T17:20:12.917Z,5.50
2018-07-25T17:22:41.461Z,5.03
2018-07-25T17:25:10.145Z,6.20
2018-07-25T17:27:38.739Z,5.23
2018-07-25T17:30:07.927Z,5.27
2018-07-25T17:32:36.639Z,5.27
2018-07-25T17:35:06.141Z,5.30
2018-07-25T17:38:59.165Z,5.03
2018-07-25T17:41:27.848Z,5.40
2018-07-25T17:43:56.338Z,4.80
2018-07-25T17:46:24.980Z,4.67
2018-07-25T17:48:53.185Z,5.00
2018-07-25T17:51:21.812Z,6.20
2018-07-25T17:53:50.319Z,4.90
2018-07-25T17:56:18.908Z,4.53
2018-07-25T17:58:47.364Z,5.27
2018-07-25T18:01:15.894Z,5.13
2018-07-25T18:03:44.400Z,4.80
2018-07-25T18:06:13.061Z,4.90
2018-07-25T18:08:41.667Z,4.90
2018-07-25T18:11:10.230Z,3.80
2018-07-25T18:13:43.884Z,4.23
2018-07-25T18:16:12.550Z,4.53
2018-07-25T18:18:41.149Z,4.37
2018-07-25T18:21:09.724Z,5.10
2018-07-25T18:23:38.245Z,4.70
2018-07-25T18:26:06.816Z,4.67
2018-07-25T18:28:35.370Z,4.87
2018-07-25T18:31:04.516Z,4.83
2018-07-25T18:33:33.068Z,5.43
2018-07-25T18:36:02.056Z,6.03
2018-07-25T18:38:30.525Z,6.43
2018-07-25T18:40:59.080Z,5.43
2018-07-25T18:43:27.608Z,5.40
2018-07-25T18:45:56.175Z,5.53
2018-07-25T18:48:24.805Z,7.13
2018-07-25T18:50:53.344Z,6.43
2018-07-25T18:53:21.956Z,6.30
2018-07-25T18:55:50.230Z,6.07
2018-07-25T18:58:18.827Z,5.23
2018-07-25T19:00:47.023Z,6.50
2018-07-25T19:03:15.793Z,5.47
2018-07-25T19:05:43.998Z,5.80
2018-07-25T19:08:12.530Z,5.50
2018-07-25T19:10:41.053Z,6.53
2018-07-25T19:13:14.984Z,5.80
2018-07-25T19:15:43.797Z,5.63
2018-07-25T19:18:12.374Z,5.90
2018-07-25T19:20:41.008Z,5.87
2018-07-25T19:23:09.608Z,5.50
2018-07-25T19:25:38.177Z,5.83
2018-07-25T19:28:06.737Z,5.97
2018-07-25T19:30:35.040Z,5.73
2018-07-25T19:33:03.591Z,5.77
2018-07-25T19:35:32.107Z,5.53
2018-07-25T19:38:00.605Z,5.70
2018-07-25T19:40:29.152Z,5.50
2018-07-25T19:42:57.668Z,6.90
2018-07-25T19:45:26.256Z,5.70
2018-07-25T19:47:54.810Z,7.07
2018-07-25T19:50:23.415Z,6.50
2018-07-25T19:52:51.909Z,6.30
2018-07-25T19:55:20.441Z,6.00
2018-07-25T19:57:49.002Z,6.93
2018-07-25T20:00:17.634Z,5.73
2018-07-25T20:02:46.145Z,5.70
2018-07-25T20:05:15.417Z,5.80
2018-07-25T20:07:43.974Z,5.67
2018-07-25T20:10:12.132Z,6.60
2018-07-25T20:12:40.676Z,6.60
2018-07-25T20:15:14.481Z,6.07
2018-07-25T20:17:43.232Z,6.27
2018-07-25T20:20:11.744Z,7.07
2018-07-25T20:22:40.304Z,6.70
2018-07-25T20:25:08.849Z,6.30
2018-07-25T20:27:37.355Z,6.93
2018-07-25T20:30:07.385Z,6.10
2018-07-25T20:32:35.920Z,6.70
2018-07-25T20:35:04.903Z,7.70
2018-07-25T20:37:33.559Z,7.60
2018-07-25T20:40:02.155Z,6.87
2018-07-25T20:42:30.717Z,6.50
2018-07-25T20:44:59.179Z,7.13
2018-07-25T20:47:27.673Z,7.17
2018-07-25T20:49:56.146Z,8.13
2018-07-25T20:52:24.733Z,7.67
2018-07-25T20:54:53.204Z,7.20
2018-07-25T20:57:21.819Z,7.47
2018-07-25T20:59:50.325Z,6.87
2018-07-25T21:02:18.933Z,6.90
2018-07-25T21:04:47.444Z,7.10
2018-07-25T21:07:15.705Z,7.57
2018-07-25T21:09:44.280Z,7.73
2018-07-25T21:12:12.786Z,7.17
2018-07-25T21:14:41.291Z,7.17
2018-07-25T21:17:09.841Z,8.50
2018-07-25T21:19:38.425Z,9.57
2018-07-25T21:22:06.968Z,7.70
2018-07-25T21:24:35.484Z,7.87
2018-07-25T21:27:04.282Z,7.40
2018-07-25T21:29:32.904Z,7.50
2018-07-25T21:32:01.485Z,7.43
2018-07-25T21:34:30.062Z,8.50
2018-07-25T21:36:58.587Z,7.40
2018-07-25T21:39:27.172Z,8.00
2018-07-25T21:41:55.762Z,8.10
2018-07-25T21:44:24.300Z,7.37
2018-07-25T21:46:52.827Z,7.60
2018-07-25T21:49:21.387Z,8.53
2018-07-25T21:51:49.929Z,7.60
2018-07-25T21:54:18.485Z,8.00
2018-07-25T21:56:47.001Z,7.53
2018-07-25T21:59:15.561Z,7.20
2018-07-25T22:01:44.097Z,7.67
2018-07-25T22:04:12.658Z,7.83
2018-07-25T22:06:41.199Z,7.30
2018-07-25T22:09:11.305Z,7.60
2018-07-25T22:11:40.306Z,7.47
2018-07-25T22:14:08.819Z,7.57
2018-07-25T22:16:37.318Z,7.10
2018-07-25T22:19:06.005Z,7.77
2018-07-25T22:21:34.509Z,7.27
2018-07-25T22:24:02.979Z,7.00
2018-07-25T22:26:31.535Z,7.93
2018-07-25T22:29:00.057Z,8.43
2018-07-25T22:31:28.596Z,7.90
2018-07-25T22:33:57.093Z,8.37
2018-07-25T22:36:25.589Z,8.00
2018-07-25T22:38:54.177Z,7.53
2018-07-25T22:41:22.737Z,8.10
2018-07-25T22:43:51.312Z,8.57
2018-07-25T22:46:19.846Z,8.43
2018-07-25T22:48:48.341Z,8.43
2018-07-25T22:51:16.808Z,9.27
2018-07-25T22:53:45.254Z,8.70
2018-07-25T22:56:13.793Z,9.00
2018-07-25T22:58:42.308Z,9.50
2018-07-25T23:01:10.929Z,8.77
2018-07-25T23:03:39.438Z,8.77
2018-07-25T23:06:07.900Z,8.23
2018-07-25T23:08:36.458Z,8.50
2018-07-25T23:11:04.974Z,8.40
2018-07-25T23:13:33.484Z,8.60
2018-07-25T23:16:01.985Z,8.73
2018-07-25T23:18:30.515Z,8.90
2018-07-25T23:20:59.025Z,8.90
2018-07-25T23:23:27.555Z,8.97
2018-07-25T23:25:56.145Z,8.50
2018-07-25T23:28:24.688Z,9.70
2018-07-25T23:30:53.232Z,9.23
2018-07-25T23:33:21.794Z,8.20
2018-07-25T23:35:50.342Z,8.70
2018-07-25T23:38:18.853Z,8.90
2018-07-25T23:40:47.390Z,8.93
2018-07-25T23:43:15.989Z,9.47
2018-07-25T23:45:44.499Z,9.27
2018-07-25T23:48:15.830Z,9.20
2018-07-25T23:50:44.341Z,9.17
2018-07-25T23:53:12.821Z,9.53
2018-07-25T23:55:41.384Z,8.77
2018-07-25T23:58:09.946Z,9.33
